Time;durP1;ratioP1;P1;durP2;ratioP2;P2;SDS_P1;SDS_P2;PMS_P1;PMS_P2;Temp;Humidity;BMP_temperature;BMP_pressure;BME280_temperature;BME280_humidity;BME280_pressure;Samples;Min_cycle;Max_cycle;Signal;HPM_P1;HPM_P2
2024/04/14 00:01:05;;;;;;;10.93;2.00;;;;;;;;;;2222108;26;20012;-58
2024/04/14 00:02:25;;;;;;;5.80;1.60;;;;;;;;;;2222148;26;20400;-59
2024/04/14 00:03:44;;;;;;;6.40;2.00;;;;;;;;;;2224398;26;20015;-60
2024/04/14 00:05:03;;;;;;;10.25;1.98;;;;;;;;;;2221291;26;20016;-63
2024/04/14 00:06:22;;;;;;;8.25;1.83;;;;;;;;;;2219473;26;20004;-60
2024/04/14 00:07:41;;;;;;;7.68;1.83;;;;;;;;;;2222480;26;20012;-61
2024/04/14 00:09:01;;;;;;;9.13;2.15;;;;;;;;;;2223746;26;20040;-60
2024/04/14 00:10:20;;;;;;;7.88;2.15;;;;;;;;;;2223490;26;20473;-59
2024/04/14 00:11:39;;;;;;;7.20;1.90;;;;;;;;;;2221225;26;20019;-60
2024/04/14 00:12:58;;;;;;;7.00;2.30;;;;;;;;;;2223373;26;20420;-59
2024/04/14 00:14:18;;;;;;;6.53;2.15;;;;;;;;;;2224034;26;20631;-59
2024/04/14 00:15:37;;;;;;;8.60;2.10;;;;;;;;;;2224202;26;20035;-59
2024/04/14 00:16:56;;;;;;;11.88;1.67;;;;;;;;;;2222910;26;23627;-59
2024/04/14 00:18:16;;;;;;;7.53;1.90;;;;;;;;;;2221693;26;20004;-59
2024/04/14 00:19:35;;;;;;;11.05;2.28;;;;;;;;;;2222813;26;20051;-60
2024/04/14 00:20:54;;;;;;;9.65;2.05;;;;;;;;;;2221619;26;20016;-60
2024/04/14 00:22:13;;;;;;;8.55;2.05;;;;;;;;;;2220838;26;20023;-59
2024/04/14 00:23:32;;;;;;;6.32;1.70;;;;;;;;;;2220698;26;20761;-59
2024/04/14 00:24:51;;;;;;;6.45;2.17;;;;;;;;;;2222147;26;20019;-60
2024/04/14 00:26:10;;;;;;;10.10;2.30;;;;;;;;;;2222554;26;20376;-60
2024/04/14 00:27:29;;;;;;;9.48;2.13;;;;;;;;;;2221948;26;20411;-60
2024/04/14 00:28:49;;;;;;;10.48;2.58;;;;;;;;;;2224021;26;20112;-60
2024/04/14 00:30:08;;;;;;;9.90;2.47;;;;;;;;;;2223449;26;20008;-60
2024/04/14 00:31:27;;;;;;;10.23;2.05;;;;;;;;;;2221932;26;20007;-59
2024/04/14 00:32:47;;;;;;;9.00;2.25;;;;;;;;;;2221848;26;20027;-60
2024/04/14 00:34:06;;;;;;;5.57;1.60;;;;;;;;;;2224325;26;20050;-60
2024/04/14 00:35:25;;;;;;;6.00;1.90;;;;;;;;;;2223110;26;20457;-60
2024/04/14 00:36:44;;;;;;;6.93;1.67;;;;;;;;;;2221389;26;20016;-60
2024/04/14 00:38:03;;;;;;;10.82;2.53;;;;;;;;;;2221007;26;20423;-60
2024/04/14 00:39:22;;;;;;;9.45;2.08;;;;;;;;;;2218539;26;21634;-60
2024/04/14 00:40:41;;;;;;;7.43;2.28;;;;;;;;;;2221783;26;20465;-59
2024/04/14 00:42:00;;;;;;;9.88;2.58;;;;;;;;;;2221134;26;20012;-59
2024/04/14 00:43:20;;;;;;;7.50;2.30;;;;;;;;;;2221887;26;20406;-59
2024/04/14 00:44:39;;;;;;;9.82;2.13;;;;;;;;;;2221162;26;20011;-59
2024/04/14 00:45:58;;;;;;;8.50;2.35;;;;;;;;;;2221500;26;20102;-60
2024/04/14 00:47:17;;;;;;;9.85;2.25;;;;;;;;;;2222501;26;20019;-60
2024/04/14 00:48:36;;;;;;;10.80;3.17;;;;;;;;;;2221896;26;20470;-59
2024/04/14 00:49:55;;;;;;;8.05;2.40;;;;;;;;;;2220045;26;20004;-59
2024/04/14 00:51:14;;;;;;;7.78;2.33;;;;;;;;;;2219679;26;20507;-59
2024/04/14 00:52:33;;;;;;;11.57;2.35;;;;;;;;;;2223036;26;20533;-56
2024/04/14 00:53:52;;;;;;;11.40;2.50;;;;;;;;;;2222723;26;20461;-60
2024/04/14 00:55:12;;;;;;;9.70;2.13;;;;;;;;;;2222193;26;20019;-60
2024/04/14 00:56:31;;;;;;;7.82;2.30;;;;;;;;;;2221621;26;20008;-59
2024/04/14 00:57:50;;;;;;;9.93;2.47;;;;;;;;;;2222490;26;20004;-59
2024/04/14 00:59:09;;;;;;;6.57;1.95;;;;;;;;;;2224356;26;20011;-59
2024/04/14 01:00:29;;;;;;;10.60;2.70;;;;;;;;;;2224079;26;20424;-58
2024/04/14 01:01:48;;;;;;;8.80;2.30;;;;;;;;;;2221416;26;20461;-60
2024/04/14 01:03:07;;;;;;;8.18;2.60;;;;;;;;;;2223866;26;20012;-60
2024/04/14 01:04:26;;;;;;;7.88;2.17;;;;;;;;;;2223519;26;20255;-60
2024/04/14 01:05:45;;;;;;;9.18;2.15;;;;;;;;;;2222202;26;20032;-60
2024/04/14 01:07:04;;;;;;;9.73;2.05;;;;;;;;;;2222058;26;20412;-60
2024/04/14 01:08:23;;;;;;;7.63;2.28;;;;;;;;;;2225091;26;20004;-59
2024/04/14 01:09:42;;;;;;;6.80;2.30;;;;;;;;;;2221423;26;20024;-59
2024/04/14 01:11:01;;;;;;;7.43;2.38;;;;;;;;;;2223011;26;22792;-59
2024/04/14 01:12:20;;;;;;;9.95;2.53;;;;;;;;;;2219877;26;20004;-60
2024/04/14 01:13:39;;;;;;;8.43;2.22;;;;;;;;;;2222557;26;20015;-60
2024/04/14 01:14:58;;;;;;;8.35;2.05;;;;;;;;;;2219322;26;20367;-60
2024/04/14 01:16:17;;;;;;;6.70;2.38;;;;;;;;;;2220735;26;20012;-60
2024/04/14 01:17:36;;;;;;;9.15;2.10;;;;;;;;;;2221772;26;20016;-60
2024/04/14 01:18:55;;;;;;;9.43;2.50;;;;;;;;;;2222506;26;20011;-60
2024/04/14 01:20:14;;;;;;;7.03;2.42;;;;;;;;;;2222888;26;20003;-59
2024/04/14 01:21:33;;;;;;;9.75;2.20;;;;;;;;;;2222325;26;20000;-60
2024/04/14 01:22:52;;;;;;;9.98;2.35;;;;;;;;;;2223692;26;20543;-60
2024/04/14 01:24:11;;;;;;;8.52;1.95;;;;;;;;;;2222964;26;20012;-59
2024/04/14 01:25:30;;;;;;;8.50;2.20;;;;;;;;;;2221768;26;20016;-59
2024/04/14 01:26:49;;;;;;;9.38;2.28;;;;;;;;;;2223016;26;20004;-60
2024/04/14 01:28:08;;;;;;;7.82;2.13;;;;;;;;;;2222824;26;20365;-59
2024/04/14 01:29:27;;;;;;;7.95;2.67;;;;;;;;;;2222770;26;20007;-57
2024/04/14 01:30:46;;;;;;;8.88;2.13;;;;;;;;;;2220734;26;20533;-59
2024/04/14 01:32:05;;;;;;;4.57;1.83;;;;;;;;;;2222496;26;20004;-61
2024/04/14 01:33:24;;;;;;;6.32;2.33;;;;;;;;;;2221639;26;20039;-59
2024/04/14 01:34:43;;;;;;;8.40;2.72;;;;;;;;;;2222575;26;20481;-60
2024/04/14 01:36:03;;;;;;;9.55;2.50;;;;;;;;;;2220141;26;20015;-64
2024/04/14 01:37:22;;;;;;;8.70;2.17;;;;;;;;;;2223594;26;20012;-59
2024/04/14 01:38:41;;;;;;;7.82;2.45;;;;;;;;;;2222919;26;20012;-62
2024/04/14 01:40:00;;;;;;;6.10;2.10;;;;;;;;;;2221607;26;20004;-59
2024/04/14 01:41:19;;;;;;;7.38;1.98;;;;;;;;;;2221583;26;20846;-59
2024/04/14 01:42:39;;;;;;;11.00;2.28;;;;;;;;;;2224893;26;20470;-59
2024/04/14 01:43:58;;;;;;;9.52;2.45;;;;;;;;;;2224020;26;20019;-59
2024/04/14 01:45:17;;;;;;;10.23;2.30;;;;;;;;;;2221461;26;20468;-60
2024/04/14 01:46:36;;;;;;;6.28;2.20;;;;;;;;;;2220574;26;20004;-59
2024/04/14 01:47:54;;;;;;;9.27;2.78;;;;;;;;;;2222015;26;20461;-60
2024/04/14 01:49:13;;;;;;;8.70;2.78;;;;;;;;;;2222935;26;20004;-60
2024/04/14 01:50:32;;;;;;;7.30;2.70;;;;;;;;;;2222130;26;20598;-60
2024/04/14 01:51:52;;;;;;;8.75;2.83;;;;;;;;;;2221714;26;20016;-60
2024/04/14 01:53:11;;;;;;;8.98;2.40;;;;;;;;;;2221930;26;20026;-59
2024/04/14 01:54:30;;;;;;;6.55;2.05;;;;;;;;;;2221230;26;20011;-58
2024/04/14 01:55:49;;;;;;;6.50;2.03;;;;;;;;;;2221731;26;20007;-59
2024/04/14 01:57:08;;;;;;;8.23;2.00;;;;;;;;;;2222390;26;20043;-59
2024/04/14 01:58:27;;;;;;;5.00;2.20;;;;;;;;;;2221499;26;20894;-58
2024/04/14 01:59:47;;;;;;;8.02;2.30;;;;;;;;;;2221894;26;20125;-60
2024/04/14 02:01:06;;;;;;;7.40;2.03;;;;;;;;;;2221543;26;20007;-58
2024/04/14 02:02:25;;;;;;;8.55;2.33;;;;;;;;;;2221268;26;20800;-60
2024/04/14 02:03:44;;;;;;;10.05;2.63;;;;;;;;;;2223134;26;20015;-60
2024/04/14 02:05:03;;;;;;;6.90;2.17;;;;;;;;;;2220632;26;20004;-60
2024/04/14 02:06:22;;;;;;;8.57;2.20;;;;;;;;;;2221943;26;20030;-59
2024/04/14 02:07:41;;;;;;;6.10;2.13;;;;;;;;;;2221773;26;21788;-59
2024/04/14 02:09:00;;;;;;;6.30;2.60;;;;;;;;;;2221771;26;20007;-60
2024/04/14 02:10:19;;;;;;;9.13;2.58;;;;;;;;;;2218579;26;20016;-59
2024/04/14 02:11:39;;;;;;;7.05;1.85;;;;;;;;;;2217223;26;20019;-58
2024/04/14 02:12:58;;;;;;;10.02;2.47;;;;;;;;;;2219839;26;20023;-58
2024/04/14 02:14:17;;;;;;;5.95;2.50;;;;;;;;;;2221754;26;20011;-59
2024/04/14 02:15:36;;;;;;;12.63;2.33;;;;;;;;;;2218328;26;20094;-60
2024/04/14 02:16:55;;;;;;;8.73;2.70;;;;;;;;;;2220460;26;20024;-60
2024/04/14 02:18:15;;;;;;;9.90;2.63;;;;;;;;;;2221961;26;20015;-60
2024/04/14 02:19:34;;;;;;;6.40;2.17;;;;;;;;;;2224043;26;20015;-60
2024/04/14 02:20:53;;;;;;;8.07;2.17;;;;;;;;;;2220164;26;20121;-60
2024/04/14 02:22:12;;;;;;;3.55;1.60;;;;;;;;;;2219700;26;20012;-60
2024/04/14 02:23:31;;;;;;;6.20;2.28;;;;;;;;;;2221373;26;20007;-60
2024/04/14 02:24:50;;;;;;;13.60;1.98;;;;;;;;;;2222575;26;20016;-60
2024/04/14 02:26:09;;;;;;;6.03;1.90;;;;;;;;;;2222203;26;20047;-61
2024/04/14 02:27:28;;;;;;;7.60;1.95;;;;;;;;;;2221726;26;20011;-60
2024/04/14 02:28:46;;;;;;;7.32;2.00;;;;;;;;;;2220031;26;20011;-59
2024/04/14 02:30:06;;;;;;;9.70;1.83;;;;;;;;;;2219664;26;20011;-58
2024/04/14 02:31:25;;;;;;;9.55;2.00;;;;;;;;;;2221686;26;20486;-60
2024/04/14 02:32:44;;;;;;;9.73;2.05;;;;;;;;;;2221930;26;20004;-61
2024/04/14 02:34:03;;;;;;;8.98;2.15;;;;;;;;;;2217095;26;20008;-59
2024/04/14 02:35:22;;;;;;;4.15;1.73;;;;;;;;;;2220214;26;20004;-60
2024/04/14 02:36:41;;;;;;;5.57;1.75;;;;;;;;;;2220112;26;20011;-59
2024/04/14 02:38:00;;;;;;;8.07;2.00;;;;;;;;;;2220921;26;20472;-60
2024/04/14 02:39:20;;;;;;;5.63;1.98;;;;;;;;;;2218632;26;20007;-59
2024/04/14 02:40:39;;;;;;;5.00;1.90;;;;;;;;;;2219600;26;20008;-59
2024/04/14 02:41:58;;;;;;;8.60;2.28;;;;;;;;;;2219904;26;20019;-59
2024/04/14 02:43:17;;;;;;;2.25;1.25;;;;;;;;;;2218746;26;20746;-58
2024/04/14 02:44:36;;;;;;;2.95;1.65;;;;;;;;;;2231317;26;20007;-59
2024/04/14 02:45:55;;;;;;;8.60;1.85;;;;;;;;;;2220007;26;20356;-60
2024/04/14 02:47:14;;;;;;;3.13;1.30;;;;;;;;;;2235144;26;20003;-61
2024/04/14 02:48:33;;;;;;;6.32;1.85;;;;;;;;;;2227791;26;20005;-59
2024/04/14 02:49:52;;;;;;;8.65;2.15;;;;;;;;;;2220434;26;20003;-59
2024/04/14 02:51:11;;;;;;;7.03;1.77;;;;;;;;;;2219376;26;20436;-58
2024/04/14 02:52:30;;;;;;;7.85;1.63;;;;;;;;;;2224510;26;20395;-59
2024/04/14 02:53:49;;;;;;;8.18;2.00;;;;;;;;;;2222098;26;20004;-58
2024/04/14 02:55:08;;;;;;;8.18;2.25;;;;;;;;;;2218255;26;20004;-59
2024/04/14 02:56:27;;;;;;;8.38;2.22;;;;;;;;;;2220388;26;20602;-59
2024/04/14 02:57:46;;;;;;;6.18;2.00;;;;;;;;;;2221051;26;20344;-59
2024/04/14 02:59:05;;;;;;;8.80;2.13;;;;;;;;;;2221970;26;20745;-62
2024/04/14 03:00:24;;;;;;;6.25;2.17;;;;;;;;;;2222234;26;20088;-59
2024/04/14 03:01:44;;;;;;;6.70;1.80;;;;;;;;;;2221351;26;20348;-60
2024/04/14 03:03:04;;;;;;;7.43;1.75;;;;;;;;;;2218729;26;20011;-60
2024/04/14 03:04:22;;;;;;;6.70;2.30;;;;;;;;;;2220212;26;20000;-59
2024/04/14 03:05:41;;;;;;;9.57;2.22;;;;;;;;;;2219469;26;20555;-60
2024/04/14 03:07:00;;;;;;;5.95;2.20;;;;;;;;;;2221018;26;20011;-59
2024/04/14 03:08:19;;;;;;;8.38;2.00;;;;;;;;;;2218336;26;20012;-59
2024/04/14 03:09:39;;;;;;;10.50;2.60;;;;;;;;;;2222805;26;20019;-58
2024/04/14 03:10:58;;;;;;;5.88;2.15;;;;;;;;;;2220913;26;20386;-60
2024/04/14 03:12:17;;;;;;;6.68;2.17;;;;;;;;;;2219892;26;20202;-60
2024/04/14 03:13:36;;;;;;;4.90;2.00;;;;;;;;;;2221740;26;20040;-59
2024/04/14 03:14:55;;;;;;;8.23;2.08;;;;;;;;;;2236995;26;19999;-59
2024/04/14 03:16:14;;;;;;;7.70;2.60;;;;;;;;;;2227623;26;20000;-59
2024/04/14 03:17:33;;;;;;;7.15;2.22;;;;;;;;;;2221428;26;20028;-59
2024/04/14 03:18:52;;;;;;;9.38;2.53;;;;;;;;;;2225306;26;20000;-59
2024/04/14 03:20:11;;;;;;;7.35;2.00;;;;;;;;;;2222772;26;20416;-60
2024/04/14 03:21:30;;;;;;;8.90;2.35;;;;;;;;;;2222637;26;20023;-58
2024/04/14 03:22:49;;;;;;;5.88;1.80;;;;;;;;;;2222269;26;20008;-60
2024/04/14 03:24:08;;;;;;;4.05;1.83;;;;;;;;;;2225073;26;20044;-60
2024/04/14 03:25:27;;;;;;;7.95;1.90;;;;;;;;;;2222155;26;20601;-60
2024/04/14 03:26:47;;;;;;;9.68;1.67;;;;;;;;;;2223624;26;20481;-60
2024/04/14 03:28:06;;;;;;;7.05;2.38;;;;;;;;;;2222275;26;20019;-60
2024/04/14 03:29:25;;;;;;;7.07;2.05;;;;;;;;;;2222555;26;21988;-59
2024/04/14 03:30:44;;;;;;;11.73;2.65;;;;;;;;;;2221029;26;20415;-60
2024/04/14 03:32:03;;;;;;;4.45;2.05;;;;;;;;;;2221987;26;20016;-58
2024/04/14 03:33:22;;;;;;;6.70;1.95;;;;;;;;;;2221559;26;20023;-60
2024/04/14 03:34:44;;;;;;;7.38;2.13;;;;;;;;;;2221817;26;19999;-58
2024/04/14 03:36:07;;;;;;;6.25;1.92;;;;;;;;;;2221298;26;19999;-58
2024/04/14 03:37:25;;;;;;;5.18;1.90;;;;;;;;;;2222271;26;20470;-62
2024/04/14 03:38:45;;;;;;;8.45;1.58;;;;;;;;;;2223171;26;20175;-60
2024/04/14 03:40:04;;;;;;;8.25;2.03;;;;;;;;;;2227441;26;20000;-59
2024/04/14 03:41:24;;;;;;;12.02;2.63;;;;;;;;;;2225406;26;20008;-60
2024/04/14 03:42:43;;;;;;;7.95;1.77;;;;;;;;;;2227089;26;20003;-59
2024/04/14 03:44:03;;;;;;;6.00;1.95;;;;;;;;;;2225180;26;20057;-60
2024/04/14 03:45:24;;;;;;;9.25;2.10;;;;;;;;;;2221062;26;20341;-58
2024/04/14 03:46:43;;;;;;;8.02;2.42;;;;;;;;;;2223849;26;20007;-59
2024/04/14 03:48:03;;;;;;;8.73;2.35;;;;;;;;;;2221884;26;20689;-59
2024/04/14 03:49:22;;;;;;;7.03;1.88;;;;;;;;;;2224056;26;20011;-60
2024/04/14 03:50:41;;;;;;;9.05;2.20;;;;;;;;;;2220897;26;20008;-59
2024/04/14 03:52:00;;;;;;;8.05;2.15;;;;;;;;;;2221547;26;20003;-60
2024/04/14 03:53:19;;;;;;;11.90;2.55;;;;;;;;;;2219703;26;20460;-59
2024/04/14 03:54:38;;;;;;;8.48;2.15;;;;;;;;;;2236240;26;20023;-59
2024/04/14 03:55:57;;;;;;;7.82;2.40;;;;;;;;;;2230096;26;20848;-59
2024/04/14 03:57:16;;;;;;;7.18;2.25;;;;;;;;;;2221116;26;20513;-60
2024/04/14 03:58:35;;;;;;;9.82;2.13;;;;;;;;;;2220580;26;20000;-59
2024/04/14 03:59:54;;;;;;;6.40;1.67;;;;;;;;;;2222122;26;20015;-61
2024/04/14 04:01:13;;;;;;;4.50;1.92;;;;;;;;;;2220748;26;20058;-59
2024/04/14 04:02:32;;;;;;;7.97;2.03;;;;;;;;;;2222477;26;20015;-59
2024/04/14 04:03:51;;;;;;;9.00;2.00;;;;;;;;;;2222817;26;20005;-59
2024/04/14 04:05:10;;;;;;;8.43;2.85;;;;;;;;;;2222894;26;20008;-59
2024/04/14 04:06:29;;;;;;;6.85;1.98;;;;;;;;;;2219862;26;20027;-60
2024/04/14 04:07:48;;;;;;;5.45;2.05;;;;;;;;;;2220254;26;20007;-59
2024/04/14 04:09:07;;;;;;;8.00;1.80;;;;;;;;;;2223104;26;20007;-59
2024/04/14 04:10:26;;;;;;;6.78;1.90;;;;;;;;;;2220881;26;19999;-59
2024/04/14 04:11:45;;;;;;;9.07;2.50;;;;;;;;;;2222648;26;20493;-59
2024/04/14 04:13:04;;;;;;;6.30;1.90;;;;;;;;;;2222961;26;20000;-59
2024/04/14 04:14:23;;;;;;;12.02;2.20;;;;;;;;;;2222516;26;20011;-60
2024/04/14 04:15:52;;;;;;;8.20;2.25;;;;;;;;;;2224237;26;20008;-60
2024/04/14 04:17:12;;;;;;;12.50;2.60;;;;;;;;;;2222810;26;20039;-59
2024/04/14 04:18:31;;;;;;;10.80;2.50;;;;;;;;;;2223409;26;20353;-59
2024/04/14 04:19:50;;;;;;;6.63;2.08;;;;;;;;;;2221538;26;20349;-59
2024/04/14 04:21:10;;;;;;;6.60;1.92;;;;;;;;;;2222534;26;20441;-59
2024/04/14 04:22:29;;;;;;;6.28;2.13;;;;;;;;;;2221717;26;20012;-59
2024/04/14 04:23:48;;;;;;;6.68;2.35;;;;;;;;;;2227513;26;20468;-60
2024/04/14 04:25:07;;;;;;;7.13;2.28;;;;;;;;;;2222044;26;20019;-59
2024/04/14 04:26:27;;;;;;;9.25;2.13;;;;;;;;;;2221049;26;20012;-60
2024/04/14 04:27:46;;;;;;;5.50;1.90;;;;;;;;;;2222394;26;20019;-60
2024/04/14 04:29:05;;;;;;;5.20;1.90;;;;;;;;;;2227319;26;20005;-59
2024/04/14 04:30:24;;;;;;;5.95;2.08;;;;;;;;;;2223069;26;20003;-59
2024/04/14 04:31:43;;;;;;;7.97;2.30;;;;;;;;;;2222575;26;20015;-60
2024/04/14 04:33:01;;;;;;;3.53;1.88;;;;;;;;;;2220313;26;20656;-59
2024/04/14 04:34:21;;;;;;;11.80;2.55;;;;;;;;;;2222028;26;20012;-59
2024/04/14 04:35:49;;;;;;;10.73;2.97;;;;;;;;;;2221991;26;20012;-60
2024/04/14 04:37:08;;;;;;;7.13;1.98;;;;;;;;;;2222460;26;20019;-59
2024/04/14 04:38:27;;;;;;;8.20;2.08;;;;;;;;;;2220790;26;20759;-60
2024/04/14 04:39:46;;;;;;;8.10;2.13;;;;;;;;;;2221525;26;20020;-60
2024/04/14 04:41:05;;;;;;;9.10;2.20;;;;;;;;;;2222409;26;20007;-58
2024/04/14 04:42:24;;;;;;;7.88;1.95;;;;;;;;;;2217301;26;20011;-60
2024/04/14 04:43:43;;;;;;;6.47;1.95;;;;;;;;;;2221588;26;20008;-58
2024/04/14 04:45:03;;;;;;;5.43;1.88;;;;;;;;;;2221980;26;20008;-60
2024/04/14 04:46:22;;;;;;;4.25;1.55;;;;;;;;;;2221828;26;20361;-60
2024/04/14 04:47:41;;;;;;;8.73;1.95;;;;;;;;;;2220543;26;20118;-57
2024/04/14 04:49:00;;;;;;;8.48;1.92;;;;;;;;;;2222388;26;20528;-59
2024/04/14 04:50:19;;;;;;;9.57;2.40;;;;;;;;;;2222886;26;20023;-60
2024/04/14 04:51:38;;;;;;;7.03;2.22;;;;;;;;;;2221649;26;20019;-60
2024/04/14 04:52:57;;;;;;;7.15;1.98;;;;;;;;;;2221652;26;20012;-61
2024/04/14 04:54:16;;;;;;;6.03;1.80;;;;;;;;;;2222112;26;20008;-60
2024/04/14 04:55:35;;;;;;;8.23;1.90;;;;;;;;;;2220931;26;20003;-58
2024/04/14 04:56:54;;;;;;;5.20;1.75;;;;;;;;;;2219638;26;20915;-58
2024/04/14 04:58:14;;;;;;;3.42;1.60;;;;;;;;;;2221195;26;20032;-60
2024/04/14 04:59:33;;;;;;;5.32;1.85;;;;;;;;;;2223343;26;19999;-60
2024/04/14 05:00:52;;;;;;;8.00;2.00;;;;;;;;;;2220987;26;20012;-59
2024/04/14 05:02:11;;;;;;;8.15;1.77;;;;;;;;;;2224171;26;20148;-59
2024/04/14 05:03:30;;;;;;;4.43;1.90;;;;;;;;;;2220627;26;20476;-60
2024/04/14 05:04:52;;;;;;;6.55;1.85;;;;;;;;;;2220316;26;20817;-58
2024/04/14 05:06:11;;;;;;;4.95;2.22;;;;;;;;;;2219897;26;20019;-60
2024/04/14 05:07:32;;;;;;;4.28;1.73;;;;;;;;;;2220778;26;20063;-59
2024/04/14 05:08:51;;;;;;;7.65;2.05;;;;;;;;;;2223676;26;20000;-59
2024/04/14 05:10:10;;;;;;;3.47;1.70;;;;;;;;;;2222869;26;20491;-58
2024/04/14 05:11:29;;;;;;;9.27;2.30;;;;;;;;;;2226428;26;19999;-60
2024/04/14 05:12:47;;;;;;;4.90;2.03;;;;;;;;;;2221797;26;20461;-60
2024/04/14 05:14:07;;;;;;;8.02;2.30;;;;;;;;;;2222047;26;20008;-60
2024/04/14 05:15:25;;;;;;;3.35;1.55;;;;;;;;;;2223940;26;20415;-59
2024/04/14 05:16:44;;;;;;;5.75;1.83;;;;;;;;;;2223607;26;20020;-60
2024/04/14 05:18:04;;;;;;;4.30;1.50;;;;;;;;;;2222735;26;20460;-60
2024/04/14 05:19:22;;;;;;;8.60;2.33;;;;;;;;;;2222337;26;20007;-59
2024/04/14 05:20:42;;;;;;;7.53;2.00;;;;;;;;;;2221887;26;19996;-60
2024/04/14 05:22:01;;;;;;;5.85;1.77;;;;;;;;;;2220042;26;20012;-58
2024/04/14 05:23:21;;;;;;;4.85;1.70;;;;;;;;;;2220872;26;20012;-60
2024/04/14 05:24:40;;;;;;;7.55;2.13;;;;;;;;;;2221941;26;20063;-60
2024/04/14 05:25:59;;;;;;;5.30;1.77;;;;;;;;;;2222604;26;20011;-60
2024/04/14 05:27:20;;;;;;;4.68;1.65;;;;;;;;;;2221628;26;20008;-60
2024/04/14 05:28:39;;;;;;;6.60;1.88;;;;;;;;;;2222010;26;20011;-60
2024/04/14 05:29:58;;;;;;;4.72;2.00;;;;;;;;;;2221307;26;19996;-62
2024/04/14 05:31:17;;;;;;;7.97;2.50;;;;;;;;;;2221317;26;20011;-64
2024/04/14 05:32:37;;;;;;;7.15;2.20;;;;;;;;;;2224047;26;20007;-59
2024/04/14 05:33:56;;;;;;;6.07;2.00;;;;;;;;;;2221854;26;20012;-61
2024/04/14 05:35:15;;;;;;;7.78;1.77;;;;;;;;;;2220227;26;20405;-60
2024/04/14 05:36:34;;;;;;;6.47;1.75;;;;;;;;;;2221443;26;20004;-61
2024/04/14 05:37:53;;;;;;;5.35;1.83;;;;;;;;;;2220869;26;20040;-59
2024/04/14 05:39:12;;;;;;;5.97;2.20;;;;;;;;;;2222206;26;20370;-59
2024/04/14 05:40:31;;;;;;;4.75;1.85;;;;;;;;;;2216373;26;20008;-60
2024/04/14 05:41:50;;;;;;;5.78;1.67;;;;;;;;;;2225239;26;20008;-59
2024/04/14 05:43:09;;;;;;;7.68;1.67;;;;;;;;;;2226761;26;20004;-60
2024/04/14 05:44:32;;;;;;;2.95;1.58;;;;;;;;;;2227278;26;20375;-60
2024/04/14 05:45:51;;;;;;;5.07;1.33;;;;;;;;;;2226824;26;20585;-59
2024/04/14 05:47:10;;;;;;;5.05;1.50;;;;;;;;;;2227660;26;20004;-60
2024/04/14 05:48:29;;;;;;;5.93;2.00;;;;;;;;;;2228881;26;20008;-60
2024/04/14 05:49:47;;;;;;;4.80;1.90;;;;;;;;;;2226173;26;20009;-61
2024/04/14 05:51:06;;;;;;;2.20;0.88;;;;;;;;;;2235601;26;20007;-60
2024/04/14 05:52:26;;;;;;;3.38;1.30;;;;;;;;;;2233175;26;20019;-59
2024/04/14 05:53:45;;;;;;;2.92;1.25;;;;;;;;;;2229238;26;20007;-60
2024/04/14 05:55:04;;;;;;;7.88;1.83;;;;;;;;;;2228117;26;20008;-61
2024/04/14 05:56:23;;;;;;;3.63;1.40;;;;;;;;;;2228384;26;20004;-61
2024/04/14 05:57:42;;;;;;;3.40;1.42;;;;;;;;;;2228709;26;20020;-60
2024/04/14 05:59:01;;;;;;;1.67;1.20;;;;;;;;;;2228546;26;20131;-60
2024/04/14 06:00:20;;;;;;;4.07;1.10;;;;;;;;;;2228466;26;20000;-60
2024/04/14 06:01:39;;;;;;;3.65;1.25;;;;;;;;;;2227663;26;20011;-60
2024/04/14 06:02:59;;;;;;;6.10;1.60;;;;;;;;;;2224879;26;20000;-60
2024/04/14 06:04:18;;;;;;;2.03;1.13;;;;;;;;;;2228381;26;20012;-60
2024/04/14 06:05:37;;;;;;;3.53;1.42;;;;;;;;;;2228517;26;20003;-59
2024/04/14 06:06:56;;;;;;;3.30;1.35;;;;;;;;;;2228099;26;20004;-60
2024/04/14 06:08:16;;;;;;;2.05;1.05;;;;;;;;;;2229414;26;20007;-60
2024/04/14 06:09:35;;;;;;;2.25;0.98;;;;;;;;;;2226446;26;20020;-59
2024/04/14 06:10:55;;;;;;;1.77;0.95;;;;;;;;;;2227686;26;20015;-60
2024/04/14 06:12:14;;;;;;;3.55;1.23;;;;;;;;;;2228883;26;20020;-60
2024/04/14 06:13:33;;;;;;;2.33;0.90;;;;;;;;;;2225129;26;20023;-61
2024/04/14 06:14:52;;;;;;;3.08;1.02;;;;;;;;;;2219625;26;20012;-60
2024/04/14 06:16:11;;;;;;;1.30;0.40;;;;;;;;;;2219629;26;20097;-60
2024/04/14 06:17:31;;;;;;;1.38;0.57;;;;;;;;;;2219139;26;20016;-60
2024/04/14 06:18:50;;;;;;;0.73;0.38;;;;;;;;;;2222462;26;20001;-60
2024/04/14 06:20:09;;;;;;;0.60;0.30;;;;;;;;;;2222148;26;20337;-60
2024/04/14 06:21:28;;;;;;;1.20;0.40;;;;;;;;;;2221707;26;20639;-60
2024/04/14 06:22:47;;;;;;;0.88;0.40;;;;;;;;;;2218934;26;20019;-60
2024/04/14 06:24:06;;;;;;;1.85;0.40;;;;;;;;;;2221823;26;21607;-60
2024/04/14 06:25:25;;;;;;;4.93;0.55;;;;;;;;;;2218824;26;20008;-59
2024/04/14 06:26:44;;;;;;;1.38;0.20;;;;;;;;;;2219350;26;20007;-61
2024/04/14 06:28:03;;;;;;;0.85;0.40;;;;;;;;;;2219702;26;20450;-60
2024/04/14 06:29:22;;;;;;;2.10;0.30;;;;;;;;;;2220383;26;20003;-61
2024/04/14 06:30:41;;;;;;;0.60;0.30;;;;;;;;;;2219536;26;20012;-58
2024/04/14 06:32:00;;;;;;;2.33;0.52;;;;;;;;;;2221197;26;20003;-60
2024/04/14 06:33:20;;;;;;;2.03;0.30;;;;;;;;;;2219073;26;20481;-58
2024/04/14 06:34:39;;;;;;;0.30;0.30;;;;;;;;;;2221830;26;20006;-60
2024/04/14 06:35:58;;;;;;;1.55;0.35;;;;;;;;;;2218688;26;20008;-60
2024/04/14 06:37:18;;;;;;;1.52;0.35;;;;;;;;;;2221094;26;20015;-60
2024/04/14 06:38:39;;;;;;;0.60;0.30;;;;;;;;;;2220855;26;20012;-59
2024/04/14 06:40:01;;;;;;;2.85;0.50;;;;;;;;;;2218565;26;20015;-61
2024/04/14 06:41:20;;;;;;;3.33;0.40;;;;;;;;;;2219788;26;20840;-61
2024/04/14 06:42:39;;;;;;;0.82;0.40;;;;;;;;;;2220832;26;20023;-61
2024/04/14 06:43:58;;;;;;;1.85;0.50;;;;;;;;;;2222323;26;20003;-61
2024/04/14 06:45:17;;;;;;;0.70;0.70;;;;;;;;;;2218385;26;20039;-60
2024/04/14 06:46:36;;;;;;;1.42;0.50;;;;;;;;;;2221085;26;20390;-60
2024/04/14 06:47:55;;;;;;;1.23;0.43;;;;;;;;;;2218557;26;20472;-59
2024/04/14 06:49:14;;;;;;;1.05;0.63;;;;;;;;;;2234063;26;20011;-60
2024/04/14 06:50:34;;;;;;;2.78;0.57;;;;;;;;;;2220272;26;20008;-61
2024/04/14 06:51:53;;;;;;;2.17;0.68;;;;;;;;;;2221035;26;20016;-61
2024/04/14 06:53:14;;;;;;;1.33;0.50;;;;;;;;;;2227569;26;20003;-61
2024/04/14 06:54:33;;;;;;;1.38;0.70;;;;;;;;;;2225118;26;20019;-60
2024/04/14 06:55:52;;;;;;;1.85;0.60;;;;;;;;;;2221134;26;20019;-61
2024/04/14 06:57:11;;;;;;;2.47;0.55;;;;;;;;;;2221580;26;20098;-61
2024/04/14 06:58:30;;;;;;;1.77;0.52;;;;;;;;;;2220683;26;20442;-62
2024/04/14 06:59:49;;;;;;;1.60;0.50;;;;;;;;;;2224498;26;20122;-62
2024/04/14 07:01:08;;;;;;;1.52;0.80;;;;;;;;;;2222748;26;20008;-61
2024/04/14 07:02:27;;;;;;;1.45;0.77;;;;;;;;;;2220655;26;20019;-61
2024/04/14 07:03:46;;;;;;;1.63;0.73;;;;;;;;;;2220525;26;20019;-61
2024/04/14 07:05:05;;;;;;;1.85;0.82;;;;;;;;;;2222756;26;20306;-61
2024/04/14 07:06:24;;;;;;;0.70;0.50;;;;;;;;;;2221314;26;20008;-61
2024/04/14 07:07:43;;;;;;;1.85;0.57;;;;;;;;;;2220240;26;20012;-62
2024/04/14 07:09:02;;;;;;;1.00;0.40;;;;;;;;;;2225283;26;20007;-61
2024/04/14 07:10:21;;;;;;;3.75;0.85;;;;;;;;;;2224510;26;20043;-60
2024/04/14 07:11:40;;;;;;;3.20;0.50;;;;;;;;;;2222275;26;20016;-59
2024/04/14 07:13:00;;;;;;;3.95;0.88;;;;;;;;;;2223087;26;20008;-62
2024/04/14 07:14:19;;;;;;;5.20;0.65;;;;;;;;;;2226851;26;20043;-61
2024/04/14 07:15:38;;;;;;;2.35;0.70;;;;;;;;;;2220936;26;20031;-61
2024/04/14 07:16:57;;;;;;;2.20;0.65;;;;;;;;;;2221769;26;20410;-61
2024/04/14 07:18:16;;;;;;;3.13;0.70;;;;;;;;;;2223142;26;20004;-61
2024/04/14 07:19:35;;;;;;;3.70;0.70;;;;;;;;;;2231336;26;20019;-61
2024/04/14 07:20:54;;;;;;;1.15;0.68;;;;;;;;;;2225850;26;20008;-60
2024/04/14 07:22:14;;;;;;;3.08;0.80;;;;;;;;;;2225747;26;20055;-61
2024/04/14 07:23:33;;;;;;;1.08;0.50;;;;;;;;;;2230505;26;20019;-61
2024/04/14 07:24:52;;;;;;;2.50;0.63;;;;;;;;;;2224120;26;20015;-61
2024/04/14 07:26:11;;;;;;;2.30;0.73;;;;;;;;;;2224583;26;20011;-62
2024/04/14 07:27:30;;;;;;;0.95;0.32;;;;;;;;;;2225617;26;19999;-60
2024/04/14 07:28:49;;;;;;;2.03;0.60;;;;;;;;;;2224407;26;20471;-61
2024/04/14 07:30:09;;;;;;;0.93;0.65;;;;;;;;;;2221499;26;20016;-61
2024/04/14 07:31:28;;;;;;;3.47;0.45;;;;;;;;;;2220949;26;20034;-61
2024/04/14 07:32:47;;;;;;;3.92;0.73;;;;;;;;;;2220439;26;20008;-60
2024/04/14 07:34:06;;;;;;;2.95;0.60;;;;;;;;;;2223751;26;20004;-61
2024/04/14 07:35:25;;;;;;;1.77;0.70;;;;;;;;;;2224687;26;20023;-61
2024/04/14 07:36:44;;;;;;;3.17;0.75;;;;;;;;;;2221068;26;20019;-62
2024/04/14 07:38:04;;;;;;;1.40;0.68;;;;;;;;;;2225775;26;20000;-61
2024/04/14 07:39:24;;;;;;;3.42;0.93;;;;;;;;;;2223991;26;20007;-61
2024/04/14 07:40:43;;;;;;;3.70;0.90;;;;;;;;;;2226466;26;20007;-61
2024/04/14 07:42:08;;;;;;;2.97;0.55;;;;;;;;;;2222659;26;20449;-61
2024/04/14 07:43:27;;;;;;;5.85;1.00;;;;;;;;;;2223523;26;20092;-59
2024/04/14 07:44:46;;;;;;;3.63;0.75;;;;;;;;;;2219273;26;20015;-61
2024/04/14 07:46:06;;;;;;;1.17;0.40;;;;;;;;;;2220795;26;20036;-60
2024/04/14 07:47:25;;;;;;;3.05;0.40;;;;;;;;;;2226456;26;20018;-59
2024/04/14 07:48:45;;;;;;;2.83;0.47;;;;;;;;;;2223228;26;20016;-59
2024/04/14 07:50:05;;;;;;;1.48;0.52;;;;;;;;;;2223385;26;20453;-61
2024/04/14 07:51:24;;;;;;;2.30;0.52;;;;;;;;;;2222082;26;20012;-60
2024/04/14 07:52:43;;;;;;;2.05;0.60;;;;;;;;;;2220394;26;20004;-59
2024/04/14 07:54:03;;;;;;;3.97;0.85;;;;;;;;;;2225103;26;20005;-60
2024/04/14 07:55:21;;;;;;;2.45;0.70;;;;;;;;;;2225534;26;20361;-60